createdAt,value
2018-06-22T00:02:21.774Z,22.34
2018-06-22T00:04:48.514Z,22.33
2018-06-22T00:07:16.174Z,22.36
2018-06-22T00:09:44.176Z,22.35
2018-06-22T00:12:11.801Z,22.25
2018-06-22T00:14:38.531Z,22.20
2018-06-22T00:17:05.228Z,22.28
2018-06-22T00:19:31.921Z,22.29
2018-06-22T00:21:58.651Z,22.25
2018-06-22T00:24:25.359Z,22.19
2018-06-22T00:26:52.051Z,22.20
2018-06-22T00:29:19.606Z,22.20
2018-06-22T00:31:46.295Z,22.19
2018-06-22T00:34:13.968Z,22.21
2018-06-22T00:36:40.705Z,22.21
2018-06-22T00:39:08.330Z,22.19
2018-06-22T00:41:35.047Z,22.19
2018-06-22T00:44:02.733Z,22.14
2018-06-22T00:46:30.265Z,22.19
2018-06-22T00:48:57.014Z,22.11
2018-06-22T00:51:23.702Z,22.17
2018-06-22T00:53:56.211Z,22.18
2018-06-22T00:56:22.955Z,22.17
2018-06-22T00:58:49.657Z,22.14
2018-06-22T01:01:16.374Z,22.19
2018-06-22T01:03:43.072Z,22.19
2018-06-22T01:06:09.813Z,22.22
2018-06-22T01:08:36.514Z,22.09
2018-06-22T01:11:03.213Z,22.10
2018-06-22T01:13:30.982Z,22.09
2018-06-22T01:15:57.710Z,22.10
2018-06-22T01:18:24.391Z,22.14
2018-06-22T01:20:51.094Z,22.20
2018-06-22T01:23:17.836Z,22.10
2018-06-22T01:25:44.539Z,22.11
2018-06-22T01:28:11.263Z,22.12
2018-06-22T01:30:37.971Z,22.08
2018-06-22T01:33:04.714Z,22.10
2018-06-22T01:35:31.406Z,22.12
2018-06-22T01:37:58.111Z,22.18
2018-06-22T01:40:24.830Z,22.07
2018-06-22T01:42:51.554Z,22.11
2018-06-22T01:45:18.258Z,22.15
2018-06-22T01:47:44.959Z,22.16
2018-06-22T01:50:11.662Z,22.10
2018-06-22T01:52:39.418Z,22.14
2018-06-22T01:55:06.101Z,22.07
2018-06-22T01:57:32.848Z,22.15
2018-06-22T02:02:25.796Z,22.10
2018-06-22T02:04:52.552Z,22.06
2018-06-22T02:07:19.257Z,22.11
2018-06-22T02:09:46.046Z,22.16
2018-06-22T02:12:12.742Z,22.10
2018-06-22T02:14:39.510Z,22.19
2018-06-22T02:17:06.208Z,22.12
2018-06-22T02:19:32.946Z,22.12
2018-06-22T02:21:59.648Z,22.10
2018-06-22T02:24:26.400Z,22.11
2018-06-22T02:26:53.100Z,22.09
2018-06-22T02:29:19.877Z,22.08
2018-06-22T02:31:46.711Z,22.09
2018-06-22T02:34:13.397Z,22.13
2018-06-22T02:36:40.143Z,22.11
2018-06-22T02:39:07.758Z,22.14
2018-06-22T02:41:34.483Z,22.07
2018-06-22T02:44:01.731Z,22.07
2018-06-22T02:46:28.450Z,22.12
2018-06-22T02:48:55.208Z,22.01
2018-06-22T02:51:21.953Z,22.08
2018-06-22T02:53:48.686Z,22.00
2018-06-22T02:56:15.381Z,22.18
2018-06-22T02:58:42.109Z,22.16
2018-06-22T03:01:08.911Z,22.17
2018-06-22T03:03:35.627Z,22.11
2018-06-22T03:06:02.328Z,22.10
2018-06-22T03:08:29.040Z,22.14
2018-06-22T03:10:55.739Z,22.04
2018-06-22T03:13:22.473Z,22.11
2018-06-22T03:15:49.302Z,22.10
2018-06-22T03:18:16.062Z,22.01
2018-06-22T03:20:42.801Z,22.02
2018-06-22T03:23:09.529Z,21.96
2018-06-22T03:25:36.250Z,21.99
2018-06-22T03:28:02.942Z,22.01
2018-06-22T03:30:29.638Z,22.10
2018-06-22T03:32:56.353Z,22.07
2018-06-22T03:35:23.109Z,22.04
2018-06-22T03:37:49.821Z,22.03
2018-06-22T03:40:16.570Z,22.04
2018-06-22T03:42:43.399Z,21.99
2018-06-22T03:45:10.190Z,22.06
2018-06-22T03:47:36.894Z,22.04
2018-06-22T03:50:03.630Z,22.02
2018-06-22T03:52:30.324Z,22.08
2018-06-22T03:54:57.019Z,22.10
2018-06-22T03:57:23.719Z,22.06
2018-06-22T03:59:50.487Z,22.18
2018-06-22T04:02:17.238Z,22.11
2018-06-22T04:04:43.945Z,22.11
2018-06-22T04:07:10.816Z,22.13
2018-06-22T04:09:37.514Z,22.15
2018-06-22T04:12:04.207Z,22.13
2018-06-22T04:14:30.915Z,22.16
2018-06-22T04:16:57.686Z,22.06
2018-06-22T04:19:24.394Z,22.09
2018-06-22T04:21:51.076Z,22.13
2018-06-22T04:24:18.373Z,22.16
2018-06-22T04:26:45.559Z,22.24
2018-06-22T04:29:12.801Z,22.10
2018-06-22T04:31:39.536Z,22.10
2018-06-22T04:34:06.284Z,22.11
2018-06-22T04:36:33.015Z,22.02
2018-06-22T04:39:00.702Z,21.99
2018-06-22T04:41:27.447Z,22.15
2018-06-22T04:43:54.122Z,22.02
2018-06-22T04:46:20.854Z,22.12
2018-06-22T04:48:48.047Z,22.15
2018-06-22T04:51:14.750Z,22.05
2018-06-22T04:53:41.594Z,22.01
2018-06-22T04:56:08.342Z,22.20
2018-06-22T04:58:35.043Z,22.10
2018-06-22T05:01:01.922Z,22.06
2018-06-22T05:03:28.668Z,22.09
2018-06-22T05:05:55.345Z,22.08
2018-06-22T05:08:22.049Z,22.11
2018-06-22T05:10:48.758Z,22.10
2018-06-22T05:13:15.485Z,22.10
2018-06-22T05:15:42.194Z,22.11
2018-06-22T05:18:09.793Z,22.05
2018-06-22T05:20:36.477Z,22.18
2018-06-22T05:23:03.167Z,22.18
2018-06-22T05:25:29.890Z,22.11
2018-06-22T05:27:56.588Z,22.11
2018-06-22T05:30:23.315Z,22.14
2018-06-22T05:32:50.029Z,22.17
2018-06-22T05:35:16.710Z,22.13
2018-06-22T05:37:44.402Z,22.17
2018-06-22T05:40:11.088Z,22.16
2018-06-22T05:42:37.907Z,22.18
2018-06-22T05:45:04.609Z,22.09
2018-06-22T05:47:31.334Z,22.13
2018-06-22T05:49:57.993Z,22.12
2018-06-22T05:52:24.667Z,22.11
2018-06-22T05:54:51.361Z,22.09
2018-06-22T05:57:18.050Z,22.20
2018-06-22T05:59:44.736Z,22.18
2018-06-22T06:02:11.453Z,22.17
2018-06-22T06:04:38.126Z,22.08
2018-06-22T06:07:04.810Z,22.11
2018-06-22T06:09:31.499Z,22.13
2018-06-22T06:11:58.187Z,22.10
2018-06-22T06:14:24.910Z,22.13
2018-06-22T06:16:51.594Z,22.19
2018-06-22T06:19:18.392Z,22.16
2018-06-22T06:21:45.103Z,22.17
2018-06-22T06:24:11.790Z,22.21
2018-06-22T06:26:38.482Z,22.16
2018-06-22T06:29:05.199Z,22.12
2018-06-22T06:31:31.962Z,22.10
2018-06-22T06:33:58.715Z,22.13
2018-06-22T06:36:25.420Z,22.15
2018-06-22T06:38:52.098Z,22.09
2018-06-22T06:41:18.814Z,22.17
2018-06-22T06:43:45.519Z,22.18
2018-06-22T06:46:12.197Z,22.14
2018-06-22T06:48:38.920Z,22.19
2018-06-22T06:51:05.592Z,22.18
2018-06-22T06:53:32.272Z,22.16
2018-06-22T06:55:58.999Z,22.20
2018-06-22T06:58:25.707Z,22.22
2018-06-22T07:00:52.406Z,22.20
2018-06-22T07:03:19.281Z,22.17
2018-06-22T07:05:45.974Z,22.18
2018-06-22T07:08:12.676Z,22.15
2018-06-22T07:10:39.362Z,22.08
2018-06-22T07:13:06.038Z,22.05
2018-06-22T07:15:38.419Z,22.03
2018-06-22T07:18:05.085Z,22.14
2018-06-22T07:20:31.807Z,22.19
2018-06-22T07:22:58.486Z,22.09
2018-06-22T07:25:25.209Z,22.09
2018-06-22T07:27:51.873Z,22.03
2018-06-22T07:30:18.570Z,22.12
2018-06-22T07:32:45.358Z,22.12
2018-06-22T07:35:12.064Z,22.17
2018-06-22T07:37:38.806Z,22.12
2018-06-22T07:40:05.527Z,22.15
2018-06-22T07:42:32.653Z,22.22
2018-06-22T07:44:59.508Z,22.22
2018-06-22T07:47:26.233Z,22.27
2018-06-22T07:49:53.018Z,22.23
2018-06-22T07:52:19.806Z,22.19
2018-06-22T07:54:46.549Z,22.13
2018-06-22T07:57:13.398Z,22.20
2018-06-22T07:59:40.085Z,22.11
2018-06-22T08:02:06.799Z,22.19
2018-06-22T08:04:33.491Z,22.17
2018-06-22T08:07:00.210Z,22.13
2018-06-22T08:09:26.907Z,22.16
2018-06-22T08:11:53.712Z,22.19
2018-06-22T08:16:46.614Z,22.14
2018-06-22T08:19:13.417Z,22.14
2018-06-22T08:21:40.367Z,22.24
2018-06-22T08:24:07.154Z,22.23
2018-06-22T08:26:34.136Z,22.27
2018-06-22T08:29:00.854Z,22.20
2018-06-22T08:31:27.601Z,22.24
2018-06-22T08:33:54.379Z,22.25
2018-06-22T08:36:21.254Z,22.27
2018-06-22T08:38:47.916Z,22.22
2018-06-22T08:41:14.622Z,22.21
2018-06-22T08:43:41.303Z,22.17
2018-06-22T08:46:08.165Z,22.21
2018-06-22T08:48:34.884Z,22.16
2018-06-22T08:51:02.642Z,22.17
2018-06-22T08:53:29.316Z,22.27
2018-06-22T08:55:56.253Z,22.23
2018-06-22T08:58:22.942Z,22.16
2018-06-22T09:00:49.692Z,22.15
2018-06-22T09:03:17.313Z,22.19
2018-06-22T09:05:44.038Z,22.13
2018-06-22T09:08:10.816Z,22.16
2018-06-22T09:10:37.487Z,22.19
2018-06-22T09:13:04.283Z,22.20
2018-06-22T09:15:31.233Z,22.29
2018-06-22T09:17:57.941Z,22.28
2018-06-22T09:20:24.631Z,22.27
2018-06-22T09:22:51.418Z,22.32
2018-06-22T09:25:18.167Z,22.31
2018-06-22T09:27:44.876Z,22.32
2018-06-22T09:30:11.566Z,22.34
2018-06-22T09:32:38.294Z,22.37
2018-06-22T09:35:06.726Z,22.37
2018-06-22T09:37:33.486Z,22.39
2018-06-22T09:40:00.183Z,22.38
2018-06-22T09:42:26.910Z,22.37
2018-06-22T09:44:53.623Z,22.41
2018-06-22T09:47:20.302Z,22.38
2018-06-22T09:49:46.993Z,22.37
2018-06-22T09:52:13.689Z,22.31
2018-06-22T09:54:40.471Z,22.35
2018-06-22T09:57:07.170Z,22.29
2018-06-22T09:59:34.001Z,22.30
2018-06-22T10:02:00.695Z,22.25
2018-06-22T10:06:53.588Z,22.27
2018-06-22T10:09:20.376Z,22.40
2018-06-22T10:11:47.203Z,22.43
2018-06-22T10:14:13.974Z,22.38
2018-06-22T10:16:40.784Z,22.41
2018-06-22T10:19:07.540Z,22.35
2018-06-22T10:21:34.240Z,22.29
2018-06-22T10:24:01.675Z,22.31
2018-06-22T10:26:28.442Z,22.28
2018-06-22T10:28:55.223Z,22.31
2018-06-22T10:31:21.994Z,22.27
2018-06-22T10:33:48.788Z,22.31
2018-06-22T10:36:15.485Z,22.35
2018-06-22T10:38:42.419Z,22.32
2018-06-22T10:41:09.138Z,22.42
2018-06-22T10:43:35.827Z,22.48
2018-06-22T10:46:02.661Z,22.40
2018-06-22T10:48:29.331Z,22.43
2018-06-22T10:50:56.123Z,22.43
2018-06-22T10:53:22.810Z,22.42
2018-06-22T10:55:49.566Z,22.47
2018-06-22T10:58:16.353Z,22.46
2018-06-22T11:00:43.082Z,22.48
2018-06-22T11:03:09.805Z,22.49
2018-06-22T11:05:36.569Z,22.44
2018-06-22T11:08:03.262Z,22.44
2018-06-22T11:10:29.959Z,22.50
2018-06-22T11:12:56.646Z,22.44
2018-06-22T11:15:23.387Z,22.42
2018-06-22T11:17:50.084Z,22.51
2018-06-22T11:20:16.770Z,22.63
2018-06-22T11:22:43.502Z,22.75
2018-06-22T11:25:10.281Z,22.70
2018-06-22T11:27:36.959Z,22.83
2018-06-22T11:30:04.096Z,22.84
2018-06-22T11:32:30.792Z,22.88
2018-06-22T11:34:57.529Z,22.95
2018-06-22T11:37:24.209Z,22.97
2018-06-22T11:39:50.934Z,22.90
2018-06-22T11:42:17.633Z,22.92
2018-06-22T11:44:44.387Z,22.97
2018-06-22T11:47:11.063Z,22.97
2018-06-22T11:49:37.755Z,22.96
2018-06-22T11:52:04.454Z,22.97
2018-06-22T11:54:31.186Z,22.82
2018-06-22T11:56:58.266Z,22.88
2018-06-22T11:59:25.030Z,22.96
2018-06-22T12:01:51.735Z,22.96
2018-06-22T12:04:18.421Z,22.93
2018-06-22T12:06:45.114Z,22.91
2018-06-22T12:09:12.837Z,22.86
2018-06-22T12:11:40.056Z,22.80
2018-06-22T12:14:06.735Z,22.76
2018-06-22T12:16:33.426Z,22.69
2018-06-22T12:19:00.240Z,22.63
2018-06-22T12:21:27.012Z,22.53
2018-06-22T12:23:53.699Z,22.40
2018-06-22T12:26:20.378Z,22.32
2018-06-22T12:28:47.067Z,22.32
2018-06-22T12:31:13.772Z,22.29
2018-06-22T12:33:40.470Z,22.24
2018-06-22T12:36:07.325Z,22.22
2018-06-22T12:38:34.067Z,22.20
2018-06-22T12:41:00.761Z,22.23
2018-06-22T12:43:27.425Z,22.23
2018-06-22T12:45:54.215Z,22.22
2018-06-22T12:48:20.902Z,22.19
2018-06-22T12:50:47.586Z,22.21
2018-06-22T12:53:14.315Z,22.23
2018-06-22T12:55:41.000Z,22.29
2018-06-22T12:58:07.738Z,22.37
2018-06-22T13:00:34.477Z,22.35
2018-06-22T13:03:12.598Z,22.46
2018-06-22T13:05:39.460Z,22.45
2018-06-22T13:08:06.153Z,22.50
2018-06-22T13:10:32.834Z,22.49
2018-06-22T13:12:59.506Z,22.44
2018-06-22T13:15:26.202Z,22.41
2018-06-22T13:17:52.878Z,22.47
2018-06-22T13:20:19.589Z,22.53
2018-06-22T13:22:46.310Z,22.57
2018-06-22T13:25:13.012Z,22.60
2018-06-22T13:27:39.733Z,22.69
2018-06-22T13:30:06.422Z,22.58
2018-06-22T13:32:33.130Z,22.58
2018-06-22T13:34:59.834Z,22.54
2018-06-22T13:37:26.650Z,22.51
2018-06-22T13:39:53.351Z,22.44
2018-06-22T13:42:20.053Z,22.46
2018-06-22T13:44:46.747Z,22.54
2018-06-22T13:47:13.443Z,22.48
2018-06-22T13:49:40.125Z,22.59
2018-06-22T13:52:07.081Z,22.60
2018-06-22T13:54:33.786Z,22.64
2018-06-22T13:57:00.539Z,22.66
2018-06-22T13:59:27.185Z,22.65
2018-06-22T14:01:53.902Z,22.59
2018-06-22T14:04:26.307Z,22.63
2018-06-22T14:06:54.353Z,22.70
2018-06-22T14:09:21.097Z,22.69
2018-06-22T14:11:47.830Z,22.72
2018-06-22T14:14:14.588Z,22.72
2018-06-22T14:16:41.496Z,22.70
2018-06-22T14:19:08.566Z,22.57
2018-06-22T14:21:35.714Z,22.52
2018-06-22T14:24:02.466Z,22.37
2018-06-22T14:26:29.140Z,22.38
2018-06-22T14:28:55.867Z,22.37
2018-06-22T14:31:22.559Z,22.31
2018-06-22T14:33:50.090Z,22.38
2018-06-22T14:36:16.780Z,22.52
2018-06-22T14:38:43.571Z,22.51
2018-06-22T14:41:10.333Z,22.66
2018-06-22T14:43:37.044Z,22.69
2018-06-22T14:46:03.928Z,22.68
2018-06-22T14:48:30.630Z,22.71
2018-06-22T14:50:57.350Z,22.70
2018-06-22T14:54:28.255Z,22.68
2018-06-22T14:59:07.608Z,22.26
2018-06-22T15:01:39.944Z,21.89
2018-06-22T15:04:12.250Z,22.32
2018-06-22T15:06:44.708Z,22.47
2018-06-22T15:09:11.533Z,22.60
2018-06-22T15:11:38.266Z,22.62
2018-06-22T15:14:04.996Z,22.62
2018-06-22T15:16:31.743Z,22.64
2018-06-22T15:18:58.428Z,22.63
2018-06-22T15:21:25.121Z,22.61
2018-06-22T15:23:51.819Z,22.63
2018-06-22T15:26:19.329Z,22.66
2018-06-22T15:28:45.998Z,22.69
2018-06-22T15:31:12.692Z,22.66
2018-06-22T15:33:45.156Z,22.63
2018-06-22T15:36:17.575Z,22.49
2018-06-22T15:38:51.056Z,22.53
2018-06-22T15:41:28.752Z,22.47
2018-06-22T15:44:01.192Z,22.53
2018-06-22T15:47:32.803Z,22.58
2018-06-22T15:50:06.781Z,22.22
2018-06-22T15:52:39.268Z,22.49
2018-06-22T15:55:07.187Z,22.54
2018-06-22T15:57:34.293Z,22.62
2018-06-22T16:00:01.108Z,22.65
2018-06-22T16:02:33.430Z,22.70
2018-06-22T16:05:00.178Z,22.61
2018-06-22T16:07:26.877Z,22.66
2018-06-22T16:10:00.265Z,22.64
2018-06-22T16:12:32.870Z,22.59
2018-06-22T16:15:05.265Z,22.59
2018-06-22T16:17:37.630Z,22.52
2018-06-22T16:20:10.031Z,22.60
2018-06-22T16:22:42.408Z,22.55
2018-06-22T16:25:14.803Z,22.57
2018-06-22T16:27:46.356Z,22.58
2018-06-22T16:30:13.146Z,22.67
2018-06-22T16:32:39.866Z,22.58
2018-06-22T16:35:06.920Z,22.65
2018-06-22T16:37:33.781Z,22.70
2018-06-22T16:40:00.513Z,22.69
2018-06-22T16:42:27.238Z,22.64
2018-06-22T16:44:54.012Z,22.68
2018-06-22T16:47:20.830Z,22.69
2018-06-22T16:49:47.571Z,22.67
2018-06-22T16:52:14.282Z,22.70
2018-06-22T16:54:43.191Z,22.69
2018-06-22T16:59:47.868Z,22.67
2018-06-22T17:02:14.566Z,22.69
2018-06-22T17:04:41.262Z,22.68
2018-06-22T17:07:13.594Z,22.63
2018-06-22T17:09:46.872Z,22.62
2018-06-22T17:12:19.303Z,22.58
2018-06-22T17:14:52.775Z,22.58
2018-06-22T17:17:25.322Z,22.58
2018-06-22T17:19:57.422Z,22.54
2018-06-22T17:22:27.485Z,22.60
2018-06-22T17:24:54.800Z,22.58
2018-06-22T17:27:21.586Z,22.61
2018-06-22T17:29:48.306Z,22.61
2018-06-22T17:32:15.075Z,22.55
2018-06-22T17:34:41.795Z,22.54
2018-06-22T17:37:09.073Z,22.55
2018-06-22T17:39:35.749Z,22.54
2018-06-22T17:42:02.448Z,22.58
2018-06-22T17:44:29.328Z,22.57
2018-06-22T17:46:56.081Z,22.58
2018-06-22T17:49:22.803Z,22.55
2018-06-22T17:51:49.524Z,22.54
2018-06-22T17:54:16.214Z,22.57
2018-06-22T17:56:42.943Z,22.49
2018-06-22T17:59:15.393Z,22.57
2018-06-22T18:01:47.726Z,22.61
2018-06-22T18:05:23.163Z,22.61
2018-06-22T18:07:49.957Z,22.22
2018-06-22T18:10:22.274Z,22.63
2018-06-22T18:12:50.974Z,22.78
2018-06-22T18:15:18.550Z,22.83
2018-06-22T18:17:45.640Z,22.85
2018-06-22T18:20:12.562Z,22.95
2018-06-22T18:22:40.732Z,23.08
2018-06-22T18:25:07.483Z,23.03
2018-06-22T18:27:37.121Z,23.07
2018-06-22T18:30:04.041Z,23.07
2018-06-22T18:32:30.974Z,23.13
2018-06-22T18:34:57.705Z,23.12
2018-06-22T18:37:24.418Z,23.06
2018-06-22T18:39:51.251Z,23.08
2018-06-22T18:42:18.302Z,23.08
2018-06-22T18:44:45.352Z,23.01
2018-06-22T18:47:12.300Z,23.02
2018-06-22T18:49:39.284Z,22.98
2018-06-22T18:52:11.903Z,23.00
2018-06-22T18:54:44.509Z,22.91
2018-06-22T18:57:18.235Z,22.91
2018-06-22T18:59:50.706Z,22.92
2018-06-22T19:03:23.760Z,22.91
2018-06-22T19:05:50.807Z,22.57
2018-06-22T19:08:17.796Z,22.74
2018-06-22T19:10:44.880Z,22.90
2018-06-22T19:13:11.949Z,22.94
2018-06-22T19:15:39.296Z,22.94
2018-06-22T19:18:06.276Z,22.93
2018-06-22T19:20:33.275Z,22.93
2018-06-22T19:23:00.232Z,22.92
2018-06-22T19:25:27.216Z,22.90
2018-06-22T19:27:54.277Z,22.85
2018-06-22T19:30:21.387Z,22.87
2018-06-22T19:32:48.426Z,22.87
2018-06-22T19:35:15.453Z,22.84
2018-06-22T19:37:43.744Z,22.83
2018-06-22T19:40:11.104Z,22.85
2018-06-22T19:42:38.187Z,22.85
2018-06-22T19:45:10.735Z,22.83
2018-06-22T19:47:43.419Z,22.75
2018-06-22T19:50:16.057Z,22.78
2018-06-22T19:52:48.754Z,22.76
2018-06-22T19:55:15.752Z,22.74
2018-06-22T19:57:43.005Z,22.77
2018-06-22T20:00:10.152Z,22.87
2018-06-22T20:02:37.259Z,22.83
2018-06-22T20:05:04.381Z,22.83
2018-06-22T20:07:31.400Z,22.81
2018-06-22T20:09:58.417Z,22.77
2018-06-22T20:12:25.515Z,22.75
2018-06-22T20:14:52.511Z,22.74
2018-06-22T20:17:19.511Z,22.73
2018-06-22T20:19:46.728Z,22.76
2018-06-22T20:22:13.827Z,22.71
2018-06-22T20:24:46.458Z,22.72
2018-06-22T20:27:13.422Z,22.69
2018-06-22T20:29:40.505Z,22.69
2018-06-22T20:32:09.134Z,22.73
2018-06-22T20:36:43.816Z,22.69
2018-06-22T20:39:16.389Z,21.95
2018-06-22T20:41:49.063Z,22.29
2018-06-22T20:44:21.545Z,22.44
2018-06-22T20:46:54.207Z,22.47
2018-06-22T20:49:27.229Z,22.57
2018-06-22T20:51:53.977Z,22.51
2018-06-22T20:54:20.808Z,22.55
2018-06-22T20:56:47.581Z,22.56
2018-06-22T20:59:14.336Z,22.65
2018-06-22T21:01:41.055Z,22.53
2018-06-22T21:04:07.767Z,22.56
2018-06-22T21:06:34.473Z,22.59
2018-06-22T21:09:01.197Z,22.58
2018-06-22T21:11:27.932Z,22.57
2018-06-22T21:13:54.638Z,22.60
2018-06-22T21:16:21.416Z,22.62
2018-06-22T21:18:48.114Z,22.57
2018-06-22T21:22:22.250Z,22.58
2018-06-22T21:24:48.927Z,22.09
2018-06-22T21:27:21.356Z,22.37
2018-06-22T21:29:53.687Z,22.34
2018-06-22T21:32:26.217Z,22.48
2018-06-22T21:34:58.617Z,22.44
2018-06-22T21:39:36.329Z,22.49
2018-06-22T21:42:03.103Z,21.79
2018-06-22T21:44:29.798Z,22.19
2018-06-22T21:46:56.717Z,22.42
2018-06-22T21:49:23.406Z,22.49
2018-06-22T21:51:50.110Z,22.47
2018-06-22T21:54:19.468Z,22.52
2018-06-22T21:56:47.888Z,22.52
2018-06-22T21:59:14.634Z,22.54
2018-06-22T22:01:41.390Z,22.48
2018-06-22T22:04:08.337Z,22.50
2018-06-22T22:06:35.083Z,22.50
2018-06-22T22:09:01.831Z,22.55
2018-06-22T22:11:34.105Z,22.54
2018-06-22T22:14:00.805Z,22.53
2018-06-22T22:16:27.494Z,22.52
2018-06-22T22:18:54.566Z,22.46
2018-06-22T22:21:21.486Z,22.49
2018-06-22T22:23:48.317Z,22.52
2018-06-22T22:26:15.008Z,22.46
2018-06-22T22:28:41.705Z,22.49
2018-06-22T22:31:08.440Z,22.47
2018-06-22T22:33:35.203Z,22.53
2018-06-22T22:36:01.898Z,22.48
2018-06-22T22:38:28.733Z,22.42
2018-06-22T22:40:55.423Z,22.45
2018-06-22T22:43:22.119Z,22.45
2018-06-22T22:45:48.864Z,22.43
2018-06-22T22:48:15.575Z,22.46
2018-06-22T22:50:42.285Z,22.39
2018-06-22T22:53:08.995Z,22.44
2018-06-22T22:55:36.917Z,22.47
2018-06-22T22:58:03.685Z,22.41
2018-06-22T23:00:30.407Z,22.37
2018-06-22T23:02:58.182Z,22.51
2018-06-22T23:05:25.343Z,22.41
2018-06-22T23:07:52.113Z,22.50
2018-06-22T23:10:18.842Z,22.48
2018-06-22T23:12:45.578Z,22.48
2018-06-22T23:15:12.267Z,22.40
2018-06-22T23:17:39.018Z,22.48
2018-06-22T23:20:05.790Z,22.38
2018-06-22T23:22:38.107Z,22.47
2018-06-22T23:25:04.907Z,22.44
2018-06-22T23:27:31.719Z,22.47
2018-06-22T23:29:58.433Z,22.48
2018-06-22T23:32:25.139Z,22.42
2018-06-22T23:34:52.261Z,22.38
2018-06-22T23:37:19.090Z,22.45
2018-06-22T23:39:45.896Z,22.48
2018-06-22T23:42:12.694Z,22.44
2018-06-22T23:44:39.537Z,22.43
2018-06-22T23:47:06.442Z,22.39
2018-06-22T23:49:34.637Z,22.40
2018-06-22T23:52:01.406Z,22.44
2018-06-22T23:54:28.113Z,22.36
2018-06-22T23:56:54.806Z,22.33
2018-06-22T23:59:21.478Z,22.42
